createdAt,value
2022-09-17T00:04:22.834Z,12.63
2022-09-17T00:09:44.621Z,12.59
2022-09-17T00:15:07.123Z,12.49
2022-09-17T00:20:28.845Z,12.53
2022-09-17T00:25:50.553Z,12.55
2022-09-17T00:31:12.707Z,12.49
2022-09-17T00:36:36.650Z,12.41
2022-09-17T00:41:58.381Z,12.45
2022-09-17T00:47:20.043Z,12.47
2022-09-17T00:52:46.087Z,12.48
2022-09-17T00:58:11.012Z,12.51
2022-09-17T01:03:33.389Z,12.42
2022-09-17T01:09:07.076Z,12.47
2022-09-17T01:14:47.600Z,12.47
2022-09-17T01:20:48.357Z,12.37
2022-09-17T01:26:57.881Z,12.33
2022-09-17T01:32:31.592Z,12.18
2022-09-17T01:38:23.563Z,12.18
2022-09-17T01:43:56.668Z,12.24
2022-09-17T01:49:21.702Z,12.30
2022-09-17T01:54:49.233Z,12.32
2022-09-17T02:00:15.945Z,12.28
2022-09-17T02:05:43.773Z,12.25
2022-09-17T02:11:11.617Z,12.24
2022-09-17T02:16:36.293Z,12.25
2022-09-17T02:22:25.810Z,12.29
2022-09-17T02:28:11.522Z,12.12
2022-09-17T02:33:35.680Z,12.19
2022-09-17T02:39:02.125Z,12.09
2022-09-17T02:44:34.054Z,12.15
2022-09-17T02:50:29.947Z,12.23
2022-09-17T02:56:11.115Z,12.26
2022-09-17T03:01:39.475Z,12.25
2022-09-17T03:07:08.954Z,12.13
2022-09-17T03:12:31.101Z,12.14
2022-09-17T03:17:53.597Z,12.11
2022-09-17T03:23:15.453Z,11.98
2022-09-17T03:28:37.192Z,11.94
2022-09-17T03:33:58.902Z,11.87
2022-09-17T03:39:20.666Z,11.81
2022-09-17T03:44:45.299Z,11.88
2022-09-17T03:50:07.761Z,11.81
2022-09-17T03:55:29.452Z,11.72
2022-09-17T04:00:53.302Z,11.76
2022-09-17T04:06:15.079Z,11.76
2022-09-17T04:11:36.811Z,11.89
2022-09-17T04:16:59.092Z,11.80
2022-09-17T04:22:21.042Z,11.77
2022-09-17T04:27:44.290Z,11.63
2022-09-17T04:33:05.981Z,11.72
2022-09-17T04:38:27.732Z,11.55
2022-09-17T04:43:49.512Z,11.68
2022-09-17T04:49:11.490Z,11.71
2022-09-17T04:54:33.306Z,11.63
2022-09-17T04:59:55.099Z,11.69
2022-09-17T05:05:18.419Z,11.67
2022-09-17T05:10:40.232Z,11.62
2022-09-17T05:16:02.231Z,11.66
2022-09-17T05:21:24.225Z,11.63
2022-09-17T05:26:45.942Z,11.52
2022-09-17T05:32:07.710Z,11.64
2022-09-17T05:37:29.732Z,11.74
2022-09-17T05:42:51.414Z,11.67
2022-09-17T05:48:14.644Z,11.65
2022-09-17T05:53:36.346Z,11.68
2022-09-17T05:58:58.444Z,11.62
2022-09-17T06:04:20.267Z,11.73
2022-09-17T06:09:41.991Z,11.80
2022-09-17T06:15:04.933Z,11.73
2022-09-17T06:20:26.641Z,11.87
2022-09-17T06:26:01.255Z,11.79
2022-09-17T06:31:23.095Z,11.83
2022-09-17T06:36:45.136Z,11.88
2022-09-17T06:42:07.002Z,11.93
2022-09-17T06:47:28.733Z,12.05
2022-09-17T06:52:52.638Z,11.97
2022-09-17T06:58:14.615Z,11.96
2022-09-17T07:03:38.501Z,11.85
2022-09-17T07:09:00.424Z,11.84
2022-09-17T07:14:24.644Z,11.92
2022-09-17T07:19:46.370Z,11.68
2022-09-17T07:25:08.756Z,11.58
2022-09-17T07:30:30.464Z,11.58
2022-09-17T07:36:01.094Z,11.59
2022-09-17T07:41:23.318Z,11.37
2022-09-17T07:46:45.198Z,11.34
2022-09-17T07:52:06.990Z,11.23
2022-09-17T07:57:28.679Z,11.32
2022-09-17T08:02:54.673Z,11.31
2022-09-17T08:08:20.962Z,11.46
2022-09-17T08:13:43.514Z,11.49
2022-09-17T08:19:05.427Z,11.39
2022-09-17T08:24:27.601Z,11.42
2022-09-17T08:29:49.593Z,11.50
2022-09-17T08:35:11.859Z,11.48
2022-09-17T08:40:42.996Z,11.65
2022-09-17T08:46:04.848Z,11.87
2022-09-17T08:52:02.369Z,11.90
2022-09-17T08:57:44.878Z,11.94
2022-09-17T09:03:30.075Z,11.89
2022-09-17T09:09:00.382Z,12.09
2022-09-17T09:14:30.419Z,12.21
2022-09-17T09:19:54.371Z,12.24
2022-09-17T09:25:16.891Z,12.30
2022-09-17T09:31:04.587Z,12.33
2022-09-17T09:36:28.630Z,12.40
2022-09-17T09:42:08.691Z,12.44
2022-09-17T09:47:42.970Z,12.50
2022-09-17T09:53:23.935Z,12.63
2022-09-17T09:58:45.686Z,12.57
2022-09-17T10:04:17.543Z,12.46
2022-09-17T10:09:45.958Z,12.62
2022-09-17T10:15:29.041Z,12.71
2022-09-17T10:21:01.064Z,12.73
2022-09-17T10:26:35.216Z,12.81
2022-09-17T10:31:58.845Z,13.03
2022-09-17T10:37:46.482Z,13.22
2022-09-17T10:43:18.898Z,13.44
2022-09-17T10:48:51.048Z,13.42
2022-09-17T10:54:12.820Z,13.60
2022-09-17T11:00:08.864Z,13.77
2022-09-17T11:06:13.599Z,13.82
2022-09-17T11:11:59.213Z,13.73
2022-09-17T11:17:54.709Z,13.66
2022-09-17T11:23:31.334Z,13.72
2022-09-17T11:29:07.882Z,13.91
2022-09-17T11:34:36.165Z,13.97
2022-09-17T11:40:07.294Z,14.03
2022-09-17T11:45:39.150Z,13.95
2022-09-17T11:51:36.415Z,14.06
2022-09-17T11:57:17.942Z,14.06
2022-09-17T12:02:51.676Z,14.38
2022-09-17T12:08:27.699Z,14.42
2022-09-17T12:13:53.088Z,14.30
2022-09-17T12:19:35.825Z,14.13
2022-09-17T12:24:57.756Z,13.70
2022-09-17T12:30:23.136Z,13.41
2022-09-17T12:36:03.604Z,13.54
2022-09-17T12:41:43.995Z,13.59
2022-09-17T12:47:13.531Z,13.69
2022-09-17T12:52:42.843Z,13.79
2022-09-17T12:58:32.467Z,13.53
2022-09-17T13:04:02.026Z,13.35
2022-09-17T13:09:57.064Z,13.38
2022-09-17T13:16:00.972Z,13.12
2022-09-17T13:21:32.046Z,12.98
2022-09-17T13:26:54.953Z,13.08
2022-09-17T13:32:34.854Z,13.01
2022-09-17T13:37:59.365Z,12.98
2022-09-17T13:43:26.570Z,13.03
2022-09-17T13:48:52.463Z,13.16
2022-09-17T13:54:16.722Z,13.26
2022-09-17T13:59:51.232Z,13.36
2022-09-17T14:05:32.424Z,13.65
2022-09-17T14:10:55.380Z,13.62
2022-09-17T14:16:33.724Z,13.77
2022-09-17T14:22:05.988Z,13.95
2022-09-17T14:27:45.932Z,13.94
2022-09-17T14:33:17.502Z,13.97
2022-09-17T14:38:45.304Z,14.04
2022-09-17T14:44:14.889Z,14.07
2022-09-17T14:49:38.537Z,14.23
2022-09-17T14:55:31.779Z,14.30
2022-09-17T15:00:53.619Z,14.33
2022-09-17T15:06:22.522Z,14.36
2022-09-17T15:11:48.031Z,14.38
2022-09-17T15:17:14.893Z,14.31
2022-09-17T15:22:41.947Z,14.08
2022-09-17T15:28:20.642Z,14.09
2022-09-17T15:33:43.984Z,14.06
2022-09-17T15:39:41.068Z,14.05
2022-09-17T15:45:20.313Z,14.18
2022-09-17T15:51:26.197Z,14.02
2022-09-17T15:56:56.595Z,14.05
2022-09-17T16:02:30.851Z,14.08
2022-09-17T16:07:52.668Z,14.02
2022-09-17T16:13:14.466Z,14.07
2022-09-17T16:18:36.152Z,14.00
2022-09-17T16:23:58.285Z,14.05
2022-09-17T16:29:21.186Z,14.15
2022-09-17T16:34:42.941Z,14.09
2022-09-17T16:40:05.215Z,14.08
2022-09-17T16:45:29.084Z,14.04
2022-09-17T16:50:50.989Z,14.02
2022-09-17T16:56:14.653Z,13.92
2022-09-17T17:01:37.171Z,13.91
2022-09-17T17:06:58.935Z,13.88
2022-09-17T17:12:20.711Z,13.98
2022-09-17T17:17:42.431Z,13.70
2022-09-17T17:23:04.183Z,13.50
2022-09-17T17:28:26.231Z,12.99
2022-09-17T17:33:47.954Z,12.53
2022-09-17T17:39:09.732Z,12.60
2022-09-17T17:44:31.567Z,12.61
2022-09-17T17:49:53.250Z,12.48
2022-09-17T17:55:16.597Z,12.59
2022-09-17T18:00:38.309Z,12.70
2022-09-17T18:06:00.607Z,12.54
2022-09-17T18:11:23.149Z,12.49
2022-09-17T18:16:44.888Z,12.49
2022-09-17T18:22:06.675Z,12.57
2022-09-17T18:27:28.432Z,12.50
2022-09-17T18:32:50.229Z,12.35
2022-09-17T18:38:12.008Z,12.32
2022-09-17T18:43:34.503Z,12.37
2022-09-17T18:48:58.139Z,12.25
2022-09-17T18:54:19.910Z,12.25
2022-09-17T18:59:41.721Z,11.98
2022-09-17T19:05:04.038Z,12.04
2022-09-17T19:10:26.506Z,12.02
2022-09-17T19:15:48.497Z,12.13
2022-09-17T19:21:12.590Z,12.09
2022-09-17T19:26:34.370Z,11.32
2022-09-17T19:31:56.295Z,11.23
2022-09-17T19:37:18.184Z,11.16
2022-09-17T19:42:39.955Z,10.92
2022-09-17T19:48:02.054Z,10.74
2022-09-17T19:53:24.415Z,10.82
2022-09-17T19:58:46.773Z,10.89
2022-09-17T20:04:09.570Z,10.94
2022-09-17T20:09:33.045Z,10.71
2022-09-17T20:14:54.856Z,10.48
2022-09-17T20:20:17.148Z,10.55
2022-09-17T20:25:39.081Z,10.48
2022-09-17T20:31:02.764Z,10.61
2022-09-17T20:36:28.217Z,10.73
2022-09-17T20:41:50.057Z,10.80
2022-09-17T20:47:11.759Z,10.85
2022-09-17T20:52:33.452Z,10.99
2022-09-17T20:57:55.166Z,10.93
2022-09-17T21:03:17.330Z,11.10
2022-09-17T21:08:39.108Z,10.99
2022-09-17T21:14:01.438Z,11.03
2022-09-17T21:19:25.277Z,10.80
2022-09-17T21:24:47.073Z,10.74
2022-09-17T21:30:09.782Z,10.58
2022-09-17T21:35:33.375Z,10.72
2022-09-17T21:41:00.150Z,11.16
2022-09-17T21:46:24.538Z,11.14
2022-09-17T21:51:46.458Z,11.06
2022-09-17T21:57:08.227Z,11.10
2022-09-17T22:02:30.357Z,10.85
2022-09-17T22:07:52.190Z,11.08
2022-09-17T22:13:13.901Z,11.21
2022-09-17T22:18:37.498Z,11.18
2022-09-17T22:24:02.129Z,11.32
2022-09-17T22:29:25.023Z,11.35
2022-09-17T22:34:46.718Z,11.39
2022-09-17T22:40:09.337Z,11.27
2022-09-17T22:45:31.158Z,11.26
2022-09-17T22:50:53.145Z,11.31
2022-09-17T22:56:16.446Z,11.33
2022-09-17T23:01:39.338Z,11.38
2022-09-17T23:07:01.116Z,11.38
2022-09-17T23:12:22.799Z,11.39
2022-09-17T23:17:44.576Z,11.39
2022-09-17T23:23:06.276Z,11.42
2022-09-17T23:28:27.942Z,11.52
2022-09-17T23:33:50.433Z,11.47
2022-09-17T23:39:12.273Z,11.46
2022-09-17T23:44:33.999Z,11.53
2022-09-17T23:49:55.922Z,11.49
2022-09-17T23:55:17.781Z,11.44
